Isle Of Wight, VA

3:47 PM EDT on May 27, 2015 (GMT -0400)
Suffolk Municipal | | Change Station
CLOSE
Current Station
Airport
Location: Suffolk,
Elevation: 72 ft
Nearby Weather Stations

Elev 72 ft 36.68 °N, 76.60 °W | Updated 12 minutes ago

Partly Cloudy
Partly Cloudy
86 °F
Feels Like 90 °F
N
13
Wind Variable Wind from SSW
Gusts 17 mph

Today
High -- | Low -- °F
--% Chance of Precip.
Yesterday
High -- | Low -- °F
Precip. -- in
5:51 AM 8:16 PM
Waxing Gibbous, 69% visible
Pressure 30.19 in
Visibility 10.0 miles
Clouds Scattered Clouds 3900 ft
Scattered Clouds 5000 ft
Mostly Cloudy 7500 ft
Heat Index 90 °F
Dew Point 69 °F
Humidity 56%
Rainfall 0.00 in
Snow Depth Not available.
UV 4 out of 12
Pollen 6.60 out of 12
Air Quality Not available.
Flu Activity No Activity
METAR KSFQ 271935Z AUTO 20011G15KT 10SM SCT039 SCT050 BKN075 30/20 A3019 RMK AO2 T03000204

More Conditions Fewer Conditions

Pressure 30.19 in
Visibility 10.0 miles
Clouds Scattered Clouds 3900 ft
Scattered Clouds 5000 ft
Mostly Cloudy 7500 ft
Heat Index 90 °F
Dew Point 69 °F
Humidity 56%
Rainfall 0.00 in
Snow Depth Not available.
UV 4 out of 12
Pollen 6.60 out of 12
Air Quality Not available.
Flu Activity No Activity
METAR KSFQ 271935Z AUTO 20011G15KT 10SM SCT039 SCT050 BKN075 30/20 A3019 RMK AO2 T03000204

More Conditions Fewer Conditions

10-Day Weather Forecast

Almanac

Astronomy

May. 27, 2015 Rise Set
Actual Time
Civil Twilight
Nautical Twilight
Astronomical Twilight
Moon
Length of Visible Light
Length of Day
Tomorrow will be .
, % of the Moon is Illuminated

Today's Extremes

State Highs State Lows

Community

WunderPhotos

Upload Photos

1,824,774 photos uploaded!

WunderBlogs® & News

Nearby

Air Quality

  Air Quality AQ Index Pollutant
Not available.

Snow Depth

Station Depth Elevation

Earthquake Activity

City Distance Mag. Time & Date
Minimum magnitude displayed is 2.5.

Coastal Water Temperatures

Place Temperature

Stations

Nearby Weather Stations

Station Location Temp. Windchill Dew Point Humidity Wind Precip. Elev Updated Type